sensor_id;sensor_type;location;lat;lon;timestamp;pressure;altitude;pressure_sealevel;temperature;humidity
35151;BME280;55720;51.972;4.624;2023-02-01T00:02:15;101751.84;;;5.96;100.00
35151;BME280;55720;51.972;4.624;2023-02-01T00:04:40;101765.97;;;5.98;100.00
35151;BME280;55720;51.972;4.624;2023-02-01T00:07:09;101778.00;;;5.97;100.00
35151;BME280;55720;51.972;4.624;2023-02-01T00:09:34;101788.66;;;5.93;100.00
35151;BME280;55720;51.972;4.624;2023-02-01T00:12:00;101787.81;;;5.82;100.00
35151;BME280;55720;51.972;4.624;2023-02-01T00:14:27;101794.63;;;5.80;100.00
35151;BME280;55720;51.972;4.624;2023-02-01T00:16:52;101797.13;;;5.66;100.00
35151;BME280;55720;51.972;4.624;2023-02-01T00:19:18;101799.84;;;5.66;100.00
35151;BME280;55720;51.972;4.624;2023-02-01T00:21:44;101794.16;;;5.68;100.00
35151;BME280;55720;51.972;4.624;2023-02-01T00:24:11;101793.06;;;5.59;100.00
35151;BME280;55720;51.972;4.624;2023-02-01T00:26:41;101790.59;;;5.57;100.00
35151;BME280;55720;51.972;4.624;2023-02-01T00:29:11;101791.41;;;5.63;100.00
35151;BME280;55720;51.972;4.624;2023-02-01T00:31:37;101784.34;;;5.67;100.00
35151;BME280;55720;51.972;4.624;2023-02-01T00:34:02;101793.56;;;5.76;100.00
35151;BME280;55720;51.972;4.624;2023-02-01T00:36:28;101800.91;;;5.85;100.00
35151;BME280;55720;51.972;4.624;2023-02-01T00:38:54;101810.44;;;5.83;100.00
35151;BME280;55720;51.972;4.624;2023-02-01T00:41:21;101809.38;;;5.74;100.00
35151;BME280;55720;51.972;4.624;2023-02-01T00:43:48;101802.03;;;5.74;100.00
35151;BME280;55720;51.972;4.624;2023-02-01T00:46:15;101812.66;;;5.71;100.00
35151;BME280;55720;51.972;4.624;2023-02-01T00:48:41;101828.75;;;5.57;100.00
35151;BME280;55720;51.972;4.624;2023-02-01T00:51:15;101823.28;;;5.62;100.00
35151;BME280;55720;51.972;4.624;2023-02-01T00:53:41;101817.84;;;5.57;100.00
35151;BME280;55720;51.972;4.624;2023-02-01T00:56:08;101809.41;;;5.64;100.00
35151;BME280;55720;51.972;4.624;2023-02-01T00:58:34;101805.31;;;5.66;100.00
35151;BME280;55720;51.972;4.624;2023-02-01T01:01:12;101803.94;;;5.74;100.00
35151;BME280;55720;51.972;4.624;2023-02-01T01:03:40;101801.19;;;5.69;100.00
35151;BME280;55720;51.972;4.624;2023-02-01T01:06:08;101805.03;;;5.63;100.00
35151;BME280;55720;51.972;4.624;2023-02-01T01:08:35;101800.72;;;5.57;100.00
35151;BME280;55720;51.972;4.624;2023-02-01T01:11:06;101793.31;;;5.62;100.00
35151;BME280;55720;51.972;4.624;2023-02-01T01:13:32;101791.94;;;5.65;100.00
35151;BME280;55720;51.972;4.624;2023-02-01T01:16:00;101801.16;;;5.84;100.00
35151;BME280;55720;51.972;4.624;2023-02-01T01:18:27;101802.81;;;5.80;100.00
35151;BME280;55720;51.972;4.624;2023-02-01T01:20:53;101814.00;;;5.78;100.00
35151;BME280;55720;51.972;4.624;2023-02-01T01:23:19;101801.75;;;5.71;100.00
35151;BME280;55720;51.972;4.624;2023-02-01T01:25:44;101782.91;;;5.79;100.00
35151;BME280;55720;51.972;4.624;2023-02-01T01:28:09;101775.59;;;5.75;100.00
35151;BME280;55720;51.972;4.624;2023-02-01T01:30:35;101769.03;;;5.81;100.00
35151;BME280;55720;51.972;4.624;2023-02-01T01:33:00;101776.09;;;5.92;100.00
35151;BME280;55720;51.972;4.624;2023-02-01T01:35:26;101777.41;;;6.05;100.00
35151;BME280;55720;51.972;4.624;2023-02-01T01:37:53;101770.28;;;6.09;100.00
35151;BME280;55720;51.972;4.624;2023-02-01T01:40:19;101767.09;;;5.97;100.00
35151;BME280;55720;51.972;4.624;2023-02-01T01:42:44;101775.25;;;6.02;100.00
35151;BME280;55720;51.972;4.624;2023-02-01T01:45:25;101778.47;;;6.09;100.00
35151;BME280;55720;51.972;4.624;2023-02-01T01:47:54;101776.53;;;6.19;100.00
35151;BME280;55720;51.972;4.624;2023-02-01T01:50:28;101762.31;;;6.22;100.00
35151;BME280;55720;51.972;4.624;2023-02-01T01:52:55;101763.38;;;6.31;100.00
35151;BME280;55720;51.972;4.624;2023-02-01T01:55:24;101760.41;;;6.28;100.00
35151;BME280;55720;51.972;4.624;2023-02-01T01:57:55;101761.28;;;6.18;100.00
35151;BME280;55720;51.972;4.624;2023-02-01T02:00:22;101753.66;;;6.10;100.00
35151;BME280;55720;51.972;4.624;2023-02-01T02:02:54;101750.13;;;6.05;100.00
35151;BME280;55720;51.972;4.624;2023-02-01T02:05:22;101734.34;;;6.02;100.00
35151;BME280;55720;51.972;4.624;2023-02-01T02:07:49;101730.53;;;6.03;100.00
35151;BME280;55720;51.972;4.624;2023-02-01T02:10:16;101723.75;;;6.00;100.00
35151;BME280;55720;51.972;4.624;2023-02-01T02:12:44;101711.97;;;6.10;100.00
35151;BME280;55720;51.972;4.624;2023-02-01T02:15:13;101703.69;;;6.25;100.00
35151;BME280;55720;51.972;4.624;2023-02-01T02:18:00;101705.53;;;6.34;100.00
35151;BME280;55720;51.972;4.624;2023-02-01T02:31:29;101677.00;;;6.17;100.00
35151;BME280;55720;51.972;4.624;2023-02-01T02:38:00;101683.13;;;6.37;100.00
35151;BME280;55720;51.972;4.624;2023-02-01T02:46:15;101697.06;;;6.36;100.00
35151;BME280;55720;51.972;4.624;2023-02-01T02:49:05;101704.69;;;6.39;100.00
35151;BME280;55720;51.972;4.624;2023-02-01T02:51:41;101707.66;;;6.42;100.00
35151;BME280;55720;51.972;4.624;2023-02-01T02:54:30;101708.72;;;6.47;100.00
35151;BME280;55720;51.972;4.624;2023-02-01T03:00:06;101694.03;;;6.42;100.00
35151;BME280;55720;51.972;4.624;2023-02-01T03:02:51;101707.38;;;6.44;100.00
35151;BME280;55720;51.972;4.624;2023-02-01T03:05:39;101686.44;;;6.34;100.00
35151;BME280;55720;51.972;4.624;2023-02-01T03:08:12;101685.63;;;6.34;100.00
35151;BME280;55720;51.972;4.624;2023-02-01T03:10:43;101690.81;;;6.35;100.00
35151;BME280;55720;51.972;4.624;2023-02-01T03:16:02;101681.31;;;6.23;100.00
35151;BME280;55720;51.972;4.624;2023-02-01T03:18:44;101677.28;;;6.15;100.00
35151;BME280;55720;51.972;4.624;2023-02-01T03:21:23;101670.16;;;6.24;100.00
35151;BME280;55720;51.972;4.624;2023-02-01T03:23:50;101667.50;;;6.09;100.00
35151;BME280;55720;51.972;4.624;2023-02-01T03:26:20;101654.53;;;5.96;100.00
35151;BME280;55720;51.972;4.624;2023-02-01T03:28:57;101652.38;;;5.93;100.00
35151;BME280;55720;51.972;4.624;2023-02-01T03:31:24;101638.75;;;5.93;100.00
35151;BME280;55720;51.972;4.624;2023-02-01T03:33:50;101646.91;;;5.93;100.00
35151;BME280;55720;51.972;4.624;2023-02-01T03:36:31;101640.66;;;5.82;100.00
35151;BME280;55720;51.972;4.624;2023-02-01T03:39:15;101630.59;;;5.78;100.00
35151;BME280;55720;51.972;4.624;2023-02-01T03:41:55;101630.56;;;5.83;100.00
35151;BME280;55720;51.972;4.624;2023-02-01T03:44:23;101630.00;;;5.91;100.00
35151;BME280;55720;51.972;4.624;2023-02-01T03:46:56;101622.38;;;5.93;100.00
35151;BME280;55720;51.972;4.624;2023-02-01T03:51:54;101607.97;;;5.87;100.00
35151;BME280;55720;51.972;4.624;2023-02-01T03:54:22;101605.22;;;5.87;100.00
35151;BME280;55720;51.972;4.624;2023-02-01T03:56:50;101609.34;;;5.80;100.00
35151;BME280;55720;51.972;4.624;2023-02-01T03:59:17;101616.41;;;5.81;100.00
35151;BME280;55720;51.972;4.624;2023-02-01T04:01:43;101628.72;;;5.78;100.00
35151;BME280;55720;51.972;4.624;2023-02-01T04:04:08;101633.09;;;5.69;100.00
35151;BME280;55720;51.972;4.624;2023-02-01T04:06:35;101625.72;;;5.75;100.00
35151;BME280;55720;51.972;4.624;2023-02-01T04:09:00;101621.63;;;5.77;100.00
35151;BME280;55720;51.972;4.624;2023-02-01T04:11:26;101625.66;;;5.90;100.00
35151;BME280;55720;51.972;4.624;2023-02-01T04:13:53;101621.81;;;5.96;100.00
35151;BME280;55720;51.972;4.624;2023-02-01T04:16:18;101628.38;;;5.90;100.00
35151;BME280;55720;51.972;4.624;2023-02-01T04:18:44;101655.09;;;5.93;100.00
35151;BME280;55720;51.972;4.624;2023-02-01T04:21:09;101649.81;;;6.07;100.00
35151;BME280;55720;51.972;4.624;2023-02-01T04:23:34;101666.63;;;6.19;100.00
35151;BME280;55720;51.972;4.624;2023-02-01T04:26:02;101672.03;;;6.29;100.00
35151;BME280;55720;51.972;4.624;2023-02-01T04:28:28;101698.72;;;6.32;100.00
35151;BME280;55720;51.972;4.624;2023-02-01T04:30:54;101694.63;;;6.34;100.00
35151;BME280;55720;51.972;4.624;2023-02-01T04:33:20;101704.47;;;6.30;100.00
35151;BME280;55720;51.972;4.624;2023-02-01T04:35:45;101703.38;;;6.31;100.00
35151;BME280;55720;51.972;4.624;2023-02-01T04:38:10;101700.97;;;6.25;100.00
35151;BME280;55720;51.972;4.624;2023-02-01T04:40:36;101695.03;;;6.13;100.00
35151;BME280;55720;51.972;4.624;2023-02-01T04:43:03;101706.25;;;6.06;100.00
35151;BME280;55720;51.972;4.624;2023-02-01T04:45:29;101712.28;;;6.03;100.00
35151;BME280;55720;51.972;4.624;2023-02-01T04:47:54;101682.31;;;5.98;100.00
35151;BME280;55720;51.972;4.624;2023-02-01T04:50:20;101683.63;;;6.01;100.00
35151;BME280;55720;51.972;4.624;2023-02-01T04:52:45;101684.69;;;6.10;100.00
35151;BME280;55720;51.972;4.624;2023-02-01T04:55:12;101687.91;;;6.17;100.00
35151;BME280;55720;51.972;4.624;2023-02-01T04:57:38;101680.25;;;6.19;100.00
35151;BME280;55720;51.972;4.624;2023-02-01T05:00:06;101687.09;;;6.16;100.00
35151;BME280;55720;51.972;4.624;2023-02-01T05:02:32;101683.31;;;6.12;100.00
35151;BME280;55720;51.972;4.624;2023-02-01T05:04:57;101670.81;;;6.06;100.00
35151;BME280;55720;51.972;4.624;2023-02-01T05:07:23;101673.03;;;5.99;100.00
35151;BME280;55720;51.972;4.624;2023-02-01T05:09:48;101673.66;;;5.86;100.00
35151;BME280;55720;51.972;4.624;2023-02-01T05:12:14;101660.84;;;5.81;100.00
35151;BME280;55720;51.972;4.624;2023-02-01T05:14:57;101663.56;;;5.86;100.00
35151;BME280;55720;51.972;4.624;2023-02-01T05:17:23;101665.47;;;5.76;100.00
35151;BME280;55720;51.972;4.624;2023-02-01T05:19:48;101666.34;;;5.71;100.00
35151;BME280;55720;51.972;4.624;2023-02-01T05:22:13;101665.53;;;5.66;100.00
35151;BME280;55720;51.972;4.624;2023-02-01T05:24:39;101665.84;;;5.64;100.00
35151;BME280;55720;51.972;4.624;2023-02-01T05:27:04;101669.19;;;5.46;100.00
35151;BME280;55720;51.972;4.624;2023-02-01T05:29:30;101660.41;;;5.54;100.00
35151;BME280;55720;51.972;4.624;2023-02-01T05:31:55;101653.09;;;5.50;100.00
35151;BME280;55720;51.972;4.624;2023-02-01T05:34:20;101650.13;;;5.46;100.00
35151;BME280;55720;51.972;4.624;2023-02-01T05:36:46;101653.34;;;5.48;100.00
35151;BME280;55720;51.972;4.624;2023-02-01T05:39:11;101642.72;;;5.46;100.00
35151;BME280;55720;51.972;4.624;2023-02-01T05:41:37;101621.19;;;5.50;100.00
35151;BME280;55720;51.972;4.624;2023-02-01T05:44:02;101616.31;;;5.52;100.00
35151;BME280;55720;51.972;4.624;2023-02-01T05:46:28;101608.63;;;5.59;100.00
35151;BME280;55720;51.972;4.624;2023-02-01T05:48:53;101603.44;;;5.68;100.00
35151;BME280;55720;51.972;4.624;2023-02-01T05:51:19;101591.72;;;5.67;100.00
35151;BME280;55720;51.972;4.624;2023-02-01T05:53:44;101595.28;;;5.63;100.00
35151;BME280;55720;51.972;4.624;2023-02-01T05:56:09;101592.78;;;5.71;100.00
35151;BME280;55720;51.972;4.624;2023-02-01T05:58:35;101596.50;;;5.85;100.00
35151;BME280;55720;51.972;4.624;2023-02-01T06:01:01;101617.78;;;5.88;100.00
35151;BME280;55720;51.972;4.624;2023-02-01T06:03:27;101612.59;;;5.87;100.00
35151;BME280;55720;51.972;4.624;2023-02-01T06:05:53;101630.31;;;5.79;100.00
35151;BME280;55720;51.972;4.624;2023-02-01T06:08:19;101631.69;;;5.77;100.00
35151;BME280;55720;51.972;4.624;2023-02-01T06:10:44;101639.63;;;5.73;100.00
35151;BME280;55720;51.972;4.624;2023-02-01T06:13:09;101638.84;;;5.68;100.00
35151;BME280;55720;51.972;4.624;2023-02-01T06:15:35;101628.47;;;5.70;100.00
35151;BME280;55720;51.972;4.624;2023-02-01T06:18:03;101628.47;;;5.65;100.00
35151;BME280;55720;51.972;4.624;2023-02-01T06:20:28;101626.06;;;5.63;100.00
35151;BME280;55720;51.972;4.624;2023-02-01T06:22:54;101618.09;;;5.72;100.00
35151;BME280;55720;51.972;4.624;2023-02-01T06:25:19;101623.28;;;5.73;100.00
35151;BME280;55720;51.972;4.624;2023-02-01T06:27:46;101615.38;;;5.72;100.00
35151;BME280;55720;51.972;4.624;2023-02-01T06:30:15;101609.38;;;5.75;100.00
35151;BME280;55720;51.972;4.624;2023-02-01T06:32:40;101617.25;;;5.76;100.00
35151;BME280;55720;51.972;4.624;2023-02-01T06:35:07;101614.28;;;5.73;100.00
35151;BME280;55720;51.972;4.624;2023-02-01T06:37:37;101599.00;;;5.77;100.00
35151;BME280;55720;51.972;4.624;2023-02-01T06:40:03;101615.84;;;5.84;100.00
35151;BME280;55720;51.972;4.624;2023-02-01T06:42:29;101610.16;;;5.75;100.00
35151;BME280;55720;51.972;4.624;2023-02-01T06:44:54;101614.25;;;5.78;100.00
35151;BME280;55720;51.972;4.624;2023-02-01T06:47:19;101624.59;;;5.81;100.00
35151;BME280;55720;51.972;4.624;2023-02-01T06:49:45;101621.88;;;5.76;100.00
35151;BME280;55720;51.972;4.624;2023-02-01T06:52:10;101631.38;;;5.83;100.00
35151;BME280;55720;51.972;4.624;2023-02-01T06:54:36;101628.97;;;5.82;100.00
35151;BME280;55720;51.972;4.624;2023-02-01T06:57:02;101641.75;;;5.81;100.00
35151;BME280;55720;51.972;4.624;2023-02-01T06:59:31;101639.03;;;5.81;100.00
35151;BME280;55720;51.972;4.624;2023-02-01T07:02:33;101621.88;;;5.81;100.00
35151;BME280;55720;51.972;4.624;2023-02-01T07:04:59;101632.22;;;5.89;100.00
35151;BME280;55720;51.972;4.624;2023-02-01T07:07:25;101629.50;;;5.89;100.00
35151;BME280;55720;51.972;4.624;2023-02-01T07:09:51;101642.84;;;5.85;100.00
35151;BME280;55720;51.972;4.624;2023-02-01T07:12:16;101640.38;;;5.89;100.00
35151;BME280;55720;51.972;4.624;2023-02-01T07:14:43;101641.47;;;5.88;100.00
35151;BME280;55720;51.972;4.624;2023-02-01T07:17:09;101648.28;;;5.85;100.00
35151;BME280;55720;51.972;4.624;2023-02-01T07:19:34;101642.56;;;5.87;100.00
35151;BME280;55720;51.972;4.624;2023-02-01T07:21:59;101653.72;;;5.85;100.00
35151;BME280;55720;51.972;4.624;2023-02-01T07:24:25;101642.28;;;5.83;100.00
35151;BME280;55720;51.972;4.624;2023-02-01T07:26:50;101634.09;;;5.83;100.00
35151;BME280;55720;51.972;4.624;2023-02-01T07:29:17;101643.13;;;5.89;100.00
35151;BME280;55720;51.972;4.624;2023-02-01T07:31:42;101647.44;;;5.90;100.00
35151;BME280;55720;51.972;4.624;2023-02-01T07:34:08;101645.53;;;5.90;100.00
35151;BME280;55720;51.972;4.624;2023-02-01T07:36:33;101660.28;;;5.84;100.00
35151;BME280;55720;51.972;4.624;2023-02-01T07:39:02;101662.19;;;5.89;100.00
35151;BME280;55720;51.972;4.624;2023-02-01T07:41:27;101664.38;;;5.87;100.00
35151;BME280;55720;51.972;4.624;2023-02-01T07:43:53;101658.63;;;5.83;100.00
35151;BME280;55720;51.972;4.624;2023-02-01T07:46:19;101655.94;;;5.88;100.00
35151;BME280;55720;51.972;4.624;2023-02-01T07:48:44;101658.91;;;5.92;100.00
35151;BME280;55720;51.972;4.624;2023-02-01T07:51:12;101665.16;;;5.92;100.00
35151;BME280;55720;51.972;4.624;2023-02-01T07:53:39;101662.72;;;5.91;100.00
35151;BME280;55720;51.972;4.624;2023-02-01T07:56:11;101661.06;;;5.95;100.00
35151;BME280;55720;51.972;4.624;2023-02-01T07:58:36;101675.22;;;5.97;100.00
35151;BME280;55720;51.972;4.624;2023-02-01T08:01:02;101674.38;;;6.02;100.00
35151;BME280;55720;51.972;4.624;2023-02-01T08:03:59;101669.16;;;6.05;100.00
35151;BME280;55720;51.972;4.624;2023-02-01T08:06:26;101678.41;;;6.09;100.00
35151;BME280;55720;51.972;4.624;2023-02-01T08:08:54;101690.16;;;6.10;100.00
35151;BME280;55720;51.972;4.624;2023-02-01T08:11:24;101683.28;;;6.17;100.00
35151;BME280;55720;51.972;4.624;2023-02-01T08:13:50;101695.28;;;6.16;100.00
35151;BME280;55720;51.972;4.624;2023-02-01T08:16:17;101690.63;;;6.22;100.00
35151;BME280;55720;51.972;4.624;2023-02-01T08:18:43;101689.25;;;6.24;100.00
35151;BME280;55720;51.972;4.624;2023-02-01T08:21:14;101682.63;;;6.30;100.00
35151;BME280;55720;51.972;4.624;2023-02-01T08:23:41;101684.78;;;6.33;100.00
35151;BME280;55720;51.972;4.624;2023-02-01T08:26:12;101693.19;;;6.47;100.00
35151;BME280;55720;51.972;4.624;2023-02-01T08:28:41;101687.91;;;6.56;100.00
35151;BME280;55720;51.972;4.624;2023-02-01T08:31:12;101687.81;;;6.66;100.00
35151;BME280;55720;51.972;4.624;2023-02-01T08:33:40;101671.09;;;6.77;100.00
35151;BME280;55720;51.972;4.624;2023-02-01T08:36:07;101687.44;;;6.82;100.00
35151;BME280;55720;51.972;4.624;2023-02-01T08:38:37;101692.59;;;6.84;100.00
35151;BME280;55720;51.972;4.624;2023-02-01T08:41:12;101709.53;;;6.81;100.00
35151;BME280;55720;51.972;4.624;2023-02-01T08:43:38;101710.91;;;6.83;100.00
35151;BME280;55720;51.972;4.624;2023-02-01T08:46:04;101708.94;;;6.89;100.00
35151;BME280;55720;51.972;4.624;2023-02-01T08:48:30;101724.50;;;6.88;100.00
35151;BME280;55720;51.972;4.624;2023-02-01T08:50:56;101727.19;;;6.93;100.00
35151;BME280;55720;51.972;4.624;2023-02-01T08:53:22;101737.53;;;6.97;100.00
35151;BME280;55720;51.972;4.624;2023-02-01T08:55:47;101725.69;;;7.06;100.00
35151;BME280;55720;51.972;4.624;2023-02-01T08:58:13;101723.41;;;7.18;100.00
35151;BME280;55720;51.972;4.624;2023-02-01T09:00:43;101729.69;;;7.19;100.00
35151;BME280;55720;51.972;4.624;2023-02-01T09:03:10;101716.31;;;7.17;100.00
35151;BME280;55720;51.972;4.624;2023-02-01T09:05:36;101726.03;;;7.28;100.00
35151;BME280;55720;51.972;4.624;2023-02-01T09:08:07;101719.81;;;7.47;100.00
35151;BME280;55720;51.972;4.624;2023-02-01T09:10:34;101717.66;;;7.67;100.00
35151;BME280;55720;51.972;4.624;2023-02-01T09:12:59;101720.06;;;7.74;100.00
35151;BME280;55720;51.972;4.624;2023-02-01T09:15:25;101720.84;;;7.74;100.00
35151;BME280;55720;51.972;4.624;2023-02-01T09:17:50;101734.00;;;7.72;100.00
35151;BME280;55720;51.972;4.624;2023-02-01T09:20:16;101734.88;;;7.68;100.00
35151;BME280;55720;51.972;4.624;2023-02-01T09:22:42;101744.66;;;7.50;100.00
35151;BME280;55720;51.972;4.624;2023-02-01T09:25:07;101741.06;;;7.55;100.00
35151;BME280;55720;51.972;4.624;2023-02-01T09:27:34;101753.66;;;7.74;100.00
35151;BME280;55720;51.972;4.624;2023-02-01T09:29:59;101764.03;;;7.77;100.00
35151;BME280;55720;51.972;4.624;2023-02-01T09:32:24;101754.94;;;7.82;100.00
35151;BME280;55720;51.972;4.624;2023-02-01T09:34:51;101757.69;;;7.82;100.00
35151;BME280;55720;51.972;4.624;2023-02-01T09:37:17;101753.44;;;7.95;100.00
35151;BME280;55720;51.972;4.624;2023-02-01T09:39:43;101765.88;;;8.06;100.00
35151;BME280;55720;51.972;4.624;2023-02-01T09:42:35;101786.00;;;7.91;100.00
35151;BME280;55720;51.972;4.624;2023-02-01T09:45:13;101795.13;;;7.81;100.00
35151;BME280;55720;51.972;4.624;2023-02-01T09:47:49;101803.44;;;7.71;100.00
35151;BME280;55720;51.972;4.624;2023-02-01T09:50:51;101786.41;;;7.79;100.00
35151;BME280;55720;51.972;4.624;2023-02-01T09:53:40;101806.13;;;7.76;100.00
35151;BME280;55720;51.972;4.624;2023-02-01T09:56:13;101807.44;;;7.84;100.00
35151;BME280;55720;51.972;4.624;2023-02-01T09:59:10;101818.00;;;7.67;100.00
35151;BME280;55720;51.972;4.624;2023-02-01T10:01:32;101825.78;;;7.55;100.00
35151;BME280;55720;51.972;4.624;2023-02-01T10:04:11;101820.34;;;7.50;100.00
35151;BME280;55720;51.972;4.624;2023-02-01T10:14:46;101819.81;;;7.48;100.00
35151;BME280;55720;51.972;4.624;2023-02-01T10:20:45;101827.97;;;7.53;100.00
35151;BME280;55720;51.972;4.624;2023-02-01T10:26:05;101827.66;;;7.59;100.00
35151;BME280;55720;51.972;4.624;2023-02-01T10:28:39;101824.19;;;7.49;100.00
35151;BME280;55720;51.972;4.624;2023-02-01T10:31:05;101829.25;;;7.60;100.00
35151;BME280;55720;51.972;4.624;2023-02-01T10:33:36;101818.56;;;7.64;100.00
35151;BME280;55720;51.972;4.624;2023-02-01T10:38:36;101807.13;;;7.62;100.00
35151;BME280;55720;51.972;4.624;2023-02-01T10:41:23;101796.63;;;7.74;100.00
35151;BME280;55720;51.972;4.624;2023-02-01T10:43:54;101804.38;;;7.85;100.00
35151;BME280;55720;51.972;4.624;2023-02-01T10:46:25;101803.56;;;7.85;100.00
35151;BME280;55720;51.972;4.624;2023-02-01T10:48:53;101809.22;;;7.93;100.00
35151;BME280;55720;51.972;4.624;2023-02-01T10:54:32;101810.91;;;8.13;100.00
35151;BME280;55720;51.972;4.624;2023-02-01T10:56:58;101793.69;;;8.13;100.00
35151;BME280;55720;51.972;4.624;2023-02-01T10:59:25;101809.69;;;8.01;100.00
35151;BME280;55720;51.972;4.624;2023-02-01T11:01:58;101785.66;;;7.98;100.00
35151;BME280;55720;51.972;4.624;2023-02-01T11:04:26;101804.94;;;7.87;100.00
35151;BME280;55720;51.972;4.624;2023-02-01T11:07:19;101789.97;;;7.80;100.00
35151;BME280;55720;51.972;4.624;2023-02-01T11:09:50;101804.94;;;7.87;100.00
35151;BME280;55720;51.972;4.624;2023-02-01T11:12:31;101800.50;;;7.91;100.00
35151;BME280;55720;51.972;4.624;2023-02-01T11:15:01;101809.00;;;7.90;100.00
35151;BME280;55720;51.972;4.624;2023-02-01T11:17:40;101807.13;;;7.85;100.00
35151;BME280;55720;51.972;4.624;2023-02-01T11:20:17;101814.00;;;7.83;100.00
35151;BME280;55720;51.972;4.624;2023-02-01T11:22:48;101786.59;;;7.88;100.00
35151;BME280;55720;51.972;4.624;2023-02-01T11:25:16;101801.88;;;7.89;100.00
35151;BME280;55720;51.972;4.624;2023-02-01T11:27:41;101786.47;;;7.98;100.00
35151;BME280;55720;51.972;4.624;2023-02-01T11:30:16;101793.88;;;7.98;100.00
35151;BME280;55720;51.972;4.624;2023-02-01T11:32:47;101798.09;;;8.09;100.00
35151;BME280;55720;51.972;4.624;2023-02-01T11:35:15;101797.97;;;8.19;100.00
35151;BME280;55720;51.972;4.624;2023-02-01T11:37:42;101790.75;;;8.28;100.00
35151;BME280;55720;51.972;4.624;2023-02-01T11:42:54;101806.72;;;8.21;100.00
35151;BME280;55720;51.972;4.624;2023-02-01T11:45:28;101798.78;;;8.19;100.00
35151;BME280;55720;51.972;4.624;2023-02-01T11:47:56;101798.75;;;8.24;100.00
35151;BME280;55720;51.972;4.624;2023-02-01T11:50:46;101806.06;;;8.29;100.00
35151;BME280;55720;51.972;4.624;2023-02-01T12:11:50;101800.34;;;8.25;100.00
35151;BME280;55720;51.972;4.624;2023-02-01T12:22:36;101791.31;;;8.06;100.00
35151;BME280;55720;51.972;4.624;2023-02-01T12:25:26;101779.91;;;8.18;100.00
35151;BME280;55720;51.972;4.624;2023-02-01T12:31:33;101786.16;;;8.23;100.00
35151;BME280;55720;51.972;4.624;2023-02-01T12:43:02;101802.63;;;8.42;100.00
35151;BME280;55720;51.972;4.624;2023-02-01T12:45:39;101795.53;;;8.41;100.00
35151;BME280;55720;51.972;4.624;2023-02-01T12:48:19;101808.94;;;8.43;100.00
35151;BME280;55720;51.972;4.624;2023-02-01T12:50:54;101794.66;;;8.46;100.00
35151;BME280;55720;51.972;4.624;2023-02-01T12:53:33;101802.41;;;8.38;100.00
35151;BME280;55720;51.972;4.624;2023-02-01T12:56:07;101789.72;;;8.24;100.00
35151;BME280;55720;51.972;4.624;2023-02-01T12:58:53;101793.47;;;8.52;100.00
35151;BME280;55720;51.972;4.624;2023-02-01T13:01:30;101786.34;;;8.88;100.00
35151;BME280;55720;51.972;4.624;2023-02-01T13:04:11;101797.44;;;8.97;100.00
35151;BME280;55720;51.972;4.624;2023-02-01T13:07:01;101794.34;;;8.66;100.00
35151;BME280;55720;51.972;4.624;2023-02-01T13:09:43;101799.31;;;8.64;100.00
35151;BME280;55720;51.972;4.624;2023-02-01T13:12:18;101813.34;;;8.38;100.00
35151;BME280;55720;51.972;4.624;2023-02-01T13:15:16;101809.03;;;8.32;100.00
35151;BME280;55720;51.972;4.624;2023-02-01T13:17:43;101796.13;;;8.38;100.00
35151;BME280;55720;51.972;4.624;2023-02-01T13:22:57;101791.97;;;8.40;100.00
35151;BME280;55720;51.972;4.624;2023-02-01T13:25:50;101800.28;;;8.35;100.00
35151;BME280;55720;51.972;4.624;2023-02-01T13:28:26;101791.84;;;8.27;100.00
35151;BME280;55720;51.972;4.624;2023-02-01T13:34:01;101765.47;;;8.17;100.00
35151;BME280;55720;51.972;4.624;2023-02-01T13:42:02;101776.44;;;8.12;100.00
35151;BME280;55720;51.972;4.624;2023-02-01T13:47:08;101789.84;;;8.14;100.00
35151;BME280;55720;51.972;4.624;2023-02-01T13:49:38;101786.88;;;8.10;100.00
35151;BME280;55720;51.972;4.624;2023-02-01T13:52:05;101761.09;;;8.16;100.00
35151;BME280;55720;51.972;4.624;2023-02-01T13:54:33;101779.91;;;8.18;100.00
35151;BME280;55720;51.972;4.624;2023-02-01T14:00:23;101774.44;;;8.18;100.00
35151;BME280;55720;51.972;4.624;2023-02-01T14:08:09;101759.41;;;8.20;100.00
35151;BME280;55720;51.972;4.624;2023-02-01T14:13:32;101750.38;;;8.20;100.00
35151;BME280;55720;51.972;4.624;2023-02-01T14:21:33;101753.00;;;8.25;100.00
35151;BME280;55720;51.972;4.624;2023-02-01T14:26:50;101751.25;;;8.15;100.00
35151;BME280;55720;51.972;4.624;2023-02-01T14:37:05;101738.22;;;8.07;100.00
35151;BME280;55720;51.972;4.624;2023-02-01T14:39:59;101739.47;;;8.15;100.00
35151;BME280;55720;51.972;4.624;2023-02-01T14:47:51;101735.28;;;8.22;100.00
35151;BME280;55720;51.972;4.624;2023-02-01T15:00:57;101747.84;;;8.23;100.00
35151;BME280;55720;51.972;4.624;2023-02-01T15:03:52;101750.00;;;8.26;100.00
35151;BME280;55720;51.972;4.624;2023-02-01T15:06:32;101738.59;;;8.19;100.00
35151;BME280;55720;51.972;4.624;2023-02-01T15:09:07;101750.41;;;8.15;100.00
35151;BME280;55720;51.972;4.624;2023-02-01T15:12:02;101739.72;;;8.18;100.00
35151;BME280;55720;51.972;4.624;2023-02-01T15:14:29;101732.09;;;8.15;100.00
35151;BME280;55720;51.972;4.624;2023-02-01T15:16:55;101736.00;;;8.09;100.00
35151;BME280;55720;51.972;4.624;2023-02-01T15:19:25;101726.63;;;8.15;100.00
35151;BME280;55720;51.972;4.624;2023-02-01T15:21:55;101722.34;;;8.09;100.00
35151;BME280;55720;51.972;4.624;2023-02-01T15:24:31;101716.22;;;8.17;100.00
35151;BME280;55720;51.972;4.624;2023-02-01T15:27:03;101724.19;;;8.14;100.00
35151;BME280;55720;51.972;4.624;2023-02-01T15:29:30;101714.94;;;8.10;100.00
35151;BME280;55720;51.972;4.624;2023-02-01T15:31:58;101711.69;;;8.08;100.00
35151;BME280;55720;51.972;4.624;2023-02-01T15:34:23;101719.28;;;8.11;100.00